createdAt,value
2023-05-02T00:02:48.588Z,12.80
2023-05-02T00:07:52.570Z,12.64
2023-05-02T00:12:54.533Z,12.56
2023-05-02T00:17:56.637Z,12.40
2023-05-02T00:22:59.987Z,12.10
2023-05-02T00:28:02.131Z,11.98
2023-05-02T00:33:06.884Z,12.08
2023-05-02T00:38:10.440Z,12.08
2023-05-02T00:43:12.501Z,12.22
2023-05-02T00:48:14.741Z,12.33
2023-05-02T00:53:18.208Z,12.24
2023-05-02T00:58:20.780Z,12.30
2023-05-02T01:03:36.971Z,12.31
2023-05-02T01:08:47.291Z,12.90
2023-05-02T01:13:53.076Z,12.71
2023-05-02T01:18:57.357Z,12.95
2023-05-02T01:24:06.951Z,12.95
2023-05-02T01:29:12.565Z,12.97
2023-05-02T01:34:15.711Z,12.89
2023-05-02T01:39:20.803Z,12.87
2023-05-02T01:44:25.437Z,12.80
2023-05-02T01:49:29.426Z,12.86
2023-05-02T01:54:33.374Z,12.91
2023-05-02T01:59:40.437Z,12.83
2023-05-02T02:04:43.602Z,12.78
2023-05-02T02:09:45.650Z,12.75
2023-05-02T02:14:56.090Z,13.19
2023-05-02T02:20:03.429Z,13.00
2023-05-02T02:25:07.981Z,12.85
2023-05-02T02:30:12.112Z,12.85
2023-05-02T02:35:14.225Z,13.04
2023-05-02T02:40:23.333Z,13.11
2023-05-02T02:45:35.343Z,12.89
2023-05-02T02:50:44.072Z,12.83
2023-05-02T02:55:52.169Z,13.03
2023-05-02T03:00:56.498Z,13.10
2023-05-02T03:05:59.441Z,13.18
2023-05-02T03:11:01.483Z,13.16
2023-05-02T03:16:31.309Z,13.20
2023-05-02T03:21:34.384Z,13.35
2023-05-02T03:26:36.354Z,13.23
2023-05-02T03:31:39.873Z,13.05
2023-05-02T03:36:42.053Z,13.60
2023-05-02T03:41:44.201Z,13.26
2023-05-02T03:46:48.243Z,13.36
2023-05-02T03:51:50.223Z,13.38
2023-05-02T03:56:53.614Z,13.41
2023-05-02T04:01:56.905Z,13.41
2023-05-02T04:06:58.838Z,13.36
2023-05-02T04:12:01.328Z,13.36
2023-05-02T04:17:07.814Z,13.58
2023-05-02T04:22:12.342Z,13.78
2023-05-02T04:27:15.402Z,13.95
2023-05-02T04:32:18.906Z,14.08
2023-05-02T04:37:21.276Z,14.13
2023-05-02T04:42:23.157Z,14.23
2023-05-02T04:47:26.618Z,14.46
2023-05-02T04:52:29.966Z,14.62
2023-05-02T04:57:31.936Z,14.80
2023-05-02T05:02:35.433Z,14.97
2023-05-02T05:07:37.590Z,15.07
2023-05-02T05:12:39.590Z,15.11
2023-05-02T05:17:43.026Z,15.32
2023-05-02T05:22:45.032Z,15.40
2023-05-02T05:27:47.146Z,15.45
2023-05-02T05:32:50.530Z,15.53
2023-05-02T05:37:53.244Z,15.57
2023-05-02T05:42:55.192Z,15.74
2023-05-02T05:47:58.647Z,15.81
2023-05-02T05:53:01.411Z,15.96
2023-05-02T05:58:03.704Z,15.96
2023-05-02T06:03:09.614Z,16.20
2023-05-02T06:08:12.124Z,16.07
2023-05-02T06:13:14.111Z,16.29
2023-05-02T06:18:17.652Z,16.24
2023-05-02T06:23:19.923Z,16.40
2023-05-02T06:28:21.747Z,16.66
2023-05-02T06:33:24.986Z,16.94
2023-05-02T06:38:26.996Z,17.05
2023-05-02T06:43:28.962Z,16.96
2023-05-02T06:48:32.314Z,17.20
2023-05-02T06:53:34.528Z,17.30
2023-05-02T06:58:36.355Z,17.33
2023-05-02T07:03:39.777Z,17.52
2023-05-02T07:08:41.820Z,17.56
2023-05-02T07:13:43.767Z,17.89
2023-05-02T07:18:47.059Z,17.65
2023-05-02T07:23:49.013Z,17.80
2023-05-02T07:28:50.977Z,18.07
2023-05-02T07:33:54.428Z,18.17
2023-05-02T07:38:56.506Z,18.15
2023-05-02T07:43:58.575Z,18.34
2023-05-02T07:49:01.775Z,18.27
2023-05-02T07:54:14.507Z,18.24
2023-05-02T07:59:16.464Z,18.66
2023-05-02T08:04:20.008Z,18.50
2023-05-02T08:09:22.168Z,18.34
2023-05-02T08:14:24.113Z,18.38
2023-05-02T08:19:27.927Z,18.71
2023-05-02T08:24:31.205Z,19.41
2023-05-02T08:29:33.281Z,19.44
2023-05-02T08:34:36.719Z,19.81
2023-05-02T08:39:38.760Z,19.82
2023-05-02T08:44:40.716Z,19.35
2023-05-02T08:49:45.932Z,19.73
2023-05-02T08:54:49.318Z,20.32
2023-05-02T08:59:51.315Z,20.59
2023-05-02T09:04:58.315Z,21.15
2023-05-02T09:10:00.702Z,21.60
2023-05-02T09:15:13.215Z,20.47
2023-05-02T09:20:17.094Z,19.94
2023-05-02T09:25:20.749Z,20.65
2023-05-02T09:30:24.897Z,20.56
2023-05-02T09:35:28.405Z,20.34
2023-05-02T09:40:32.518Z,21.04
2023-05-02T09:45:34.490Z,20.16
2023-05-02T09:50:38.758Z,20.47
2023-05-02T09:55:40.764Z,20.26
2023-05-02T10:00:44.785Z,20.21
2023-05-02T10:05:48.117Z,19.50
2023-05-02T10:10:55.859Z,19.55
2023-05-02T10:16:00.664Z,19.67
2023-05-02T10:21:08.793Z,19.13
2023-05-02T10:26:12.243Z,18.66
2023-05-02T10:31:15.365Z,18.56
2023-05-02T10:36:22.420Z,18.71
2023-05-02T10:41:26.828Z,18.24
2023-05-02T10:46:33.498Z,17.84
2023-05-02T10:51:38.478Z,18.33
2023-05-02T10:57:05.649Z,18.60
2023-05-02T11:02:48.735Z,19.42
2023-05-02T11:08:30.595Z,20.06
2023-05-02T11:13:51.309Z,20.07
2023-05-02T11:19:01.637Z,20.39
2023-05-02T11:24:42.126Z,19.74
2023-05-02T11:29:51.984Z,19.81
2023-05-02T11:34:55.589Z,19.99
2023-05-02T11:40:12.115Z,20.01
2023-05-02T11:45:14.275Z,19.59
2023-05-02T11:50:16.851Z,19.04
2023-05-02T11:55:20.229Z,18.18
2023-05-02T12:00:27.744Z,18.08
2023-05-02T12:05:30.389Z,18.36
2023-05-02T12:10:37.790Z,19.17
2023-05-02T12:15:40.078Z,19.11
2023-05-02T12:20:47.036Z,19.61
2023-05-02T12:26:18.214Z,19.35
2023-05-02T12:31:20.733Z,19.06
2023-05-02T12:36:23.079Z,19.16
2023-05-02T12:41:33.733Z,18.42
2023-05-02T12:46:36.637Z,18.27
2023-05-02T12:51:39.732Z,18.15
2023-05-02T12:56:44.061Z,17.79
2023-05-02T13:01:46.059Z,17.92
2023-05-02T13:06:48.098Z,18.05
2023-05-02T13:11:53.946Z,18.57
2023-05-02T13:16:57.419Z,18.84
2023-05-02T13:21:59.711Z,18.27
2023-05-02T13:27:03.094Z,17.52
2023-05-02T13:32:05.514Z,16.83
2023-05-02T13:37:07.633Z,15.51
2023-05-02T13:42:10.933Z,14.63
2023-05-02T13:47:12.884Z,14.04
2023-05-02T13:52:14.994Z,13.96
2023-05-02T13:57:18.363Z,14.18
2023-05-02T14:02:20.918Z,14.51
2023-05-02T14:07:23.270Z,14.49
2023-05-02T14:12:26.643Z,15.06
2023-05-02T14:17:30.142Z,14.86
2023-05-02T14:22:32.310Z,15.04
2023-05-02T14:27:36.408Z,15.24
2023-05-02T14:32:38.541Z,15.15
2023-05-02T14:37:40.910Z,15.20
2023-05-02T14:42:44.176Z,14.95
2023-05-02T14:47:47.142Z,15.00
2023-05-02T14:52:49.144Z,14.66
2023-05-02T14:57:52.932Z,14.14
2023-05-02T15:02:55.107Z,13.83
2023-05-02T15:07:57.144Z,13.55
2023-05-02T15:13:00.647Z,12.37
2023-05-02T15:18:02.875Z,11.72
2023-05-02T15:23:04.908Z,11.46
2023-05-02T15:28:08.295Z,11.35
2023-05-02T15:33:10.471Z,11.37
2023-05-02T15:38:12.445Z,11.55
2023-05-02T15:43:18.559Z,11.63
2023-05-02T15:48:21.020Z,11.57
2023-05-02T15:53:23.296Z,11.64
2023-05-02T15:58:26.607Z,11.67
2023-05-02T16:03:28.693Z,11.94
2023-05-02T16:08:30.983Z,11.71
2023-05-02T16:13:34.422Z,11.60
2023-05-02T16:18:36.384Z,11.67
2023-05-02T16:23:38.339Z,11.74
2023-05-02T16:28:41.801Z,11.46
2023-05-02T16:33:43.803Z,11.54
2023-05-02T16:38:46.173Z,11.43
2023-05-02T16:43:51.013Z,11.34
2023-05-02T16:48:53.116Z,11.27
2023-05-02T16:53:55.080Z,11.27
2023-05-02T16:58:58.466Z,11.13
2023-05-02T17:04:00.513Z,11.07
2023-05-02T17:09:03.729Z,10.92
2023-05-02T17:14:07.073Z,10.87
2023-05-02T17:19:09.040Z,10.87
2023-05-02T17:24:11.289Z,10.88
2023-05-02T17:29:14.986Z,10.74
2023-05-02T17:34:16.985Z,10.61
2023-05-02T17:39:19.099Z,10.71
2023-05-02T17:44:22.512Z,10.66
2023-05-02T17:49:24.453Z,10.48
2023-05-02T17:54:26.734Z,10.43
2023-05-02T17:59:30.106Z,10.51
2023-05-02T18:04:32.077Z,10.28
2023-05-02T18:09:34.076Z,10.29
2023-05-02T18:14:37.351Z,10.38
2023-05-02T18:19:39.348Z,10.39
2023-05-02T18:24:41.692Z,10.34
2023-05-02T18:29:45.100Z,10.30
2023-05-02T18:34:48.297Z,10.28
2023-05-02T18:39:50.429Z,10.35
2023-05-02T18:44:53.856Z,10.11
2023-05-02T18:49:59.389Z,10.03
2023-05-02T18:55:03.214Z,9.94
2023-05-02T19:00:08.220Z,10.11
2023-05-02T19:05:10.758Z,10.08
2023-05-02T19:10:12.797Z,10.18
2023-05-02T19:15:16.497Z,10.04
2023-05-02T19:20:18.820Z,10.15
2023-05-02T19:25:21.202Z,10.05
2023-05-02T19:30:24.882Z,10.10
2023-05-02T19:35:27.667Z,10.13
2023-05-02T19:40:29.792Z,10.04
2023-05-02T19:45:33.088Z,9.90
2023-05-02T19:50:35.657Z,9.90
2023-05-02T19:55:37.699Z,9.90
2023-05-02T20:00:43.813Z,9.88
2023-05-02T20:05:45.777Z,9.84
2023-05-02T20:10:47.896Z,9.82
2023-05-02T20:15:52.824Z,9.91
2023-05-02T20:20:55.095Z,9.91
2023-05-02T20:25:57.317Z,9.90
2023-05-02T20:31:01.806Z,9.83
2023-05-02T20:36:04.098Z,9.88
2023-05-02T20:41:10.541Z,10.02
2023-05-02T20:46:16.504Z,10.17
2023-05-02T20:51:18.616Z,10.10
2023-05-02T20:56:20.996Z,10.11
2023-05-02T21:01:25.432Z,10.12
2023-05-02T21:06:27.518Z,10.27
2023-05-02T21:11:29.673Z,10.09
2023-05-02T21:16:33.171Z,10.00
2023-05-02T21:21:35.227Z,9.95
2023-05-02T21:26:37.268Z,9.91
2023-05-02T21:31:40.677Z,10.00
2023-05-02T21:36:43.327Z,9.91
2023-05-02T21:41:45.327Z,9.91
2023-05-02T21:46:48.684Z,9.97
2023-05-02T21:51:50.644Z,9.88
2023-05-02T21:56:53.102Z,9.81
2023-05-02T22:01:57.314Z,9.79
2023-05-02T22:06:59.395Z,9.76
2023-05-02T22:12:01.391Z,9.75
2023-05-02T22:17:05.010Z,9.72
2023-05-02T22:22:07.217Z,9.64
2023-05-02T22:27:09.286Z,9.63
2023-05-02T22:32:12.602Z,9.66
2023-05-02T22:37:14.616Z,9.63
2023-05-02T22:42:16.625Z,9.59
2023-05-02T22:47:21.236Z,9.53
2023-05-02T22:52:23.186Z,9.52
2023-05-02T22:57:25.129Z,9.64
2023-05-02T23:02:28.658Z,9.50
2023-05-02T23:07:30.793Z,9.50
2023-05-02T23:12:33.664Z,9.48
2023-05-02T23:17:38.929Z,9.43
2023-05-02T23:22:44.197Z,9.39
2023-05-02T23:27:46.097Z,9.32
2023-05-02T23:32:49.560Z,9.31
2023-05-02T23:37:52.582Z,9.26
2023-05-02T23:42:54.598Z,9.18
2023-05-02T23:47:57.911Z,9.21
2023-05-02T23:52:59.954Z,9.13
2023-05-02T23:58:02.154Z,9.09
